Coleman, Canada
Current Conditions -  °F | °C
As of 12:00 AM on Saturday 25 Oct 2014 (Local Time) from CZPC Reporting Station
Overcast Overcast  
Wind Chill: 33°   Ceiling: 14000
Heat Index: 37°   Visibility: 9mi
Dew Point: 30°   Wind: 6mph
Humidity: 75%   Direction: 220°SW
Pressure: 30.06"   Gusts: NA
Location:  49.64°N, 114.5°W
Report Text: CZPC 250600Z AUTO 22005KT 160V220 9SM OVC140 03/M01 A3006 RMK PRESFR SLP199
Loading
Personal Weather Stations






























Interactive Weather Map
Tropical Storm Tracking
New forecast layout! Learn more

10-Day Weather Forecast

Advertisements
Track Severe Weather on mobile